createdAt,value
2018-05-17T00:00:41.542Z,13.30
2018-05-17T00:02:44.102Z,13.30
2018-05-17T00:04:46.656Z,13.10
2018-05-17T00:06:49.290Z,13.10
2018-05-17T00:08:51.825Z,13.10
2018-05-17T00:10:54.377Z,13.30
2018-05-17T00:12:56.948Z,13.40
2018-05-17T00:14:59.502Z,13.60
2018-05-17T00:17:02.071Z,13.70
2018-05-17T00:19:04.680Z,13.70
2018-05-17T00:21:07.228Z,13.80
2018-05-17T00:23:09.816Z,14.00
2018-05-17T00:25:12.353Z,14.10
2018-05-17T00:27:14.924Z,14.10
2018-05-17T00:29:17.480Z,14.10
2018-05-17T00:31:20.792Z,14.20
2018-05-17T00:33:23.355Z,14.20
2018-05-17T00:35:25.920Z,14.20
2018-05-17T00:37:29.295Z,14.30
2018-05-17T00:39:31.840Z,14.30
2018-05-17T00:41:34.413Z,14.30
2018-05-17T00:43:36.984Z,14.30
2018-05-17T00:45:39.532Z,14.30
2018-05-17T00:47:42.894Z,14.30
2018-05-17T00:49:46.202Z,14.30
2018-05-17T00:51:49.442Z,14.40
2018-05-17T00:53:52.007Z,14.40
2018-05-17T00:55:54.557Z,14.40
2018-05-17T00:57:57.209Z,14.40
2018-05-17T00:59:59.752Z,14.50
2018-05-17T01:02:02.355Z,14.50
2018-05-17T01:04:04.917Z,14.50
2018-05-17T01:06:08.236Z,14.00
2018-05-17T01:08:10.819Z,14.00
2018-05-17T01:10:13.372Z,13.80
2018-05-17T01:12:15.924Z,13.00
2018-05-17T01:14:19.241Z,12.50
2018-05-17T01:16:21.771Z,12.50
2018-05-17T01:18:24.327Z,12.60
2018-05-17T01:20:26.883Z,12.70
2018-05-17T01:22:30.211Z,12.80
2018-05-17T01:24:32.771Z,12.80
2018-05-17T01:26:35.353Z,12.80
2018-05-17T01:28:37.947Z,12.80
2018-05-17T01:30:41.262Z,12.90
2018-05-17T01:32:43.824Z,12.80
2018-05-17T01:34:47.148Z,13.00
2018-05-17T01:37:01.676Z,13.00
2018-05-17T01:39:04.236Z,13.00
2018-05-17T01:41:07.557Z,13.10
2018-05-17T01:43:10.975Z,13.10
2018-05-17T01:45:13.512Z,13.10
2018-05-17T01:47:16.142Z,13.10
2018-05-17T01:49:20.214Z,13.20
2018-05-17T01:51:22.788Z,13.20
2018-05-17T01:53:25.343Z,13.00
2018-05-17T01:55:27.880Z,12.90
2018-05-17T01:57:30.438Z,12.90
2018-05-17T01:59:32.995Z,12.90
2018-05-17T02:01:35.550Z,12.90
2018-05-17T02:03:38.415Z,12.90
2018-05-17T02:05:40.982Z,13.00
2018-05-17T02:07:43.533Z,13.00
2018-05-17T02:09:46.872Z,13.00
2018-05-17T02:11:49.469Z,13.00
2018-05-17T02:13:52.032Z,13.00
2018-05-17T02:15:54.569Z,13.10
2018-05-17T02:17:57.100Z,13.10
2018-05-17T02:19:59.663Z,13.10
2018-05-17T02:22:02.209Z,13.20
2018-05-17T02:24:04.808Z,13.20
2018-05-17T02:26:07.355Z,13.20
2018-05-17T02:28:09.915Z,13.20
2018-05-17T02:30:12.520Z,13.30
2018-05-17T02:32:15.904Z,13.30
2018-05-17T02:34:18.511Z,13.30
2018-05-17T02:36:21.059Z,13.30
2018-05-17T02:38:23.611Z,13.30
2018-05-17T02:40:26.169Z,13.30
2018-05-17T02:42:28.729Z,13.30
2018-05-17T02:44:34.540Z,13.40
2018-05-17T02:46:37.087Z,13.30
2018-05-17T02:48:39.668Z,13.30
2018-05-17T02:50:42.198Z,13.40
2018-05-17T02:52:45.509Z,13.40
2018-05-17T02:54:48.110Z,13.40
2018-05-17T02:56:50.640Z,13.40
2018-05-17T02:58:53.224Z,13.30
2018-05-17T03:00:55.795Z,13.30
2018-05-17T03:02:59.127Z,13.30
2018-05-17T03:05:01.716Z,13.30
2018-05-17T03:07:04.272Z,13.30
2018-05-17T03:09:06.869Z,13.30
2018-05-17T03:11:09.408Z,13.30
2018-05-17T03:13:11.963Z,13.40
2018-05-17T03:15:14.629Z,13.30
2018-05-17T03:17:17.164Z,13.30
2018-05-17T03:19:19.732Z,13.30
2018-05-17T03:21:22.275Z,13.20
2018-05-17T03:23:24.837Z,13.00
2018-05-17T03:25:27.403Z,13.10
2018-05-17T03:27:29.952Z,13.10
2018-05-17T03:29:33.281Z,13.30
2018-05-17T03:31:35.830Z,13.30
2018-05-17T03:33:39.167Z,13.30
2018-05-17T03:35:41.720Z,13.30
2018-05-17T03:37:44.337Z,13.30
2018-05-17T03:39:46.955Z,13.30
2018-05-17T03:41:49.516Z,13.30
2018-05-17T03:43:52.076Z,13.30
2018-05-17T03:45:55.438Z,13.30
2018-05-17T03:47:57.992Z,13.30
2018-05-17T03:50:00.560Z,13.30
2018-05-17T03:52:03.107Z,13.30
2018-05-17T03:54:05.660Z,13.20
2018-05-17T03:56:08.992Z,13.20
2018-05-17T03:58:11.545Z,13.20
2018-05-17T04:00:14.116Z,13.20
2018-05-17T04:02:28.542Z,13.10
2018-05-17T04:04:43.833Z,13.00
2018-05-17T04:06:46.418Z,13.00
2018-05-17T04:08:48.966Z,12.90
2018-05-17T04:10:52.299Z,12.80
2018-05-17T04:12:54.855Z,12.80
2018-05-17T04:14:57.428Z,12.80
2018-05-17T04:16:59.984Z,12.80
2018-05-17T04:19:03.286Z,12.80
2018-05-17T04:21:05.858Z,12.80
2018-05-17T04:23:08.487Z,12.80
2018-05-17T04:25:11.071Z,12.80
2018-05-17T04:27:13.618Z,12.90
2018-05-17T04:29:16.195Z,12.90
2018-05-17T04:31:18.735Z,12.90
2018-05-17T04:33:21.303Z,12.90
2018-05-17T04:35:23.951Z,13.00
2018-05-17T04:37:27.267Z,13.10
2018-05-17T04:39:29.816Z,13.10
2018-05-17T04:41:33.176Z,13.20
2018-05-17T04:43:35.715Z,13.20
2018-05-17T04:45:38.283Z,12.80
2018-05-17T04:47:40.912Z,12.60
2018-05-17T04:49:43.463Z,12.80
2018-05-17T04:51:46.039Z,13.00
2018-05-17T04:53:48.592Z,13.10
2018-05-17T04:55:51.164Z,13.30
2018-05-17T04:57:53.709Z,13.40
2018-05-17T04:59:57.069Z,13.60
2018-05-17T05:01:59.647Z,13.60
2018-05-17T05:04:02.221Z,13.70
2018-05-17T05:06:04.784Z,13.70
2018-05-17T05:08:07.331Z,13.70
2018-05-17T05:10:09.929Z,13.70
2018-05-17T05:12:12.476Z,13.90
2018-05-17T05:14:15.021Z,14.00
2018-05-17T05:16:17.677Z,14.10
2018-05-17T05:18:20.247Z,14.20
2018-05-17T05:20:22.797Z,14.20
2018-05-17T05:22:25.353Z,14.30
2018-05-17T05:24:27.896Z,14.30
2018-05-17T05:26:30.465Z,14.40
2018-05-17T05:28:33.035Z,14.50
2018-05-17T05:30:35.647Z,14.60
2018-05-17T05:32:38.209Z,14.60
2018-05-17T05:34:41.528Z,14.70
2018-05-17T05:36:44.091Z,14.70
2018-05-17T05:38:46.643Z,14.70
2018-05-17T05:40:49.216Z,14.70
2018-05-17T05:42:51.804Z,14.80
2018-05-17T05:44:54.357Z,14.70
2018-05-17T05:46:57.004Z,14.70
2018-05-17T05:49:00.336Z,14.30
2018-05-17T05:51:02.892Z,14.30
2018-05-17T05:53:05.442Z,14.20
2018-05-17T05:55:08.757Z,14.00
2018-05-17T05:57:11.314Z,14.00
2018-05-17T05:59:13.928Z,14.00
2018-05-17T06:01:16.513Z,14.00
2018-05-17T06:03:19.084Z,14.00
2018-05-17T06:05:21.932Z,14.00
2018-05-17T06:07:24.496Z,13.90
2018-05-17T06:09:27.081Z,13.70
2018-05-17T06:11:29.649Z,13.70
2018-05-17T06:13:32.194Z,13.60
2018-05-17T06:15:35.516Z,13.70
2018-05-17T06:17:38.082Z,13.70
2018-05-17T06:19:40.636Z,13.80
2018-05-17T06:21:43.971Z,14.00
2018-05-17T06:23:46.574Z,14.00
2018-05-17T06:25:49.862Z,14.20
2018-05-17T06:27:53.199Z,14.20
2018-05-17T06:29:55.748Z,14.10
2018-05-17T06:31:58.352Z,14.10
2018-05-17T06:34:00.899Z,14.20
2018-05-17T06:36:03.452Z,14.20
2018-05-17T06:38:06.035Z,14.20
2018-05-17T06:40:08.587Z,14.20
2018-05-17T06:42:11.180Z,14.20
2018-05-17T06:44:13.732Z,14.20
2018-05-17T06:46:16.289Z,14.00
2018-05-17T06:48:18.860Z,14.10
2018-05-17T06:50:21.411Z,14.10
2018-05-17T06:52:23.975Z,14.10
2018-05-17T06:54:27.292Z,14.10
2018-05-17T06:56:29.997Z,14.10
2018-05-17T06:58:32.555Z,14.20
2018-05-17T07:00:35.178Z,14.20
2018-05-17T07:02:38.497Z,14.30
2018-05-17T07:04:41.043Z,14.20
2018-05-17T07:06:43.601Z,14.10
2018-05-17T07:08:46.187Z,14.20
2018-05-17T07:10:49.488Z,14.20
2018-05-17T07:12:52.095Z,14.10
2018-05-17T07:14:54.696Z,14.20
2018-05-17T07:16:57.241Z,14.10
2018-05-17T07:18:59.811Z,14.10
2018-05-17T07:21:02.360Z,14.00
2018-05-17T07:23:04.946Z,13.90
2018-05-17T07:25:08.358Z,13.90
2018-05-17T07:27:10.921Z,13.90
2018-05-17T07:29:13.580Z,14.00
2018-05-17T07:31:16.135Z,14.10
2018-05-17T07:33:19.546Z,14.20
2018-05-17T07:35:22.151Z,14.20
2018-05-17T07:37:24.724Z,13.90
2018-05-17T07:39:27.282Z,13.80
2018-05-17T07:41:29.853Z,14.20
2018-05-17T07:43:32.435Z,14.40
2018-05-17T07:45:34.996Z,14.50
2018-05-17T07:47:37.575Z,14.70
2018-05-17T07:49:40.115Z,14.90
2018-05-17T07:51:42.677Z,15.00
2018-05-17T07:53:45.254Z,14.90
2018-05-17T07:55:47.849Z,14.70
2018-05-17T07:57:51.176Z,14.60
2018-05-17T07:59:53.960Z,14.50
2018-05-17T08:01:56.517Z,14.50
2018-05-17T08:03:59.084Z,14.30
2018-05-17T08:06:01.657Z,14.50
2018-05-17T08:08:05.028Z,14.30
2018-05-17T08:10:08.355Z,14.40
2018-05-17T08:12:10.959Z,14.40
2018-05-17T08:14:13.683Z,14.40
2018-05-17T08:16:17.014Z,14.40
2018-05-17T08:18:19.644Z,14.40
2018-05-17T08:20:22.196Z,14.00
2018-05-17T08:22:24.780Z,14.00
2018-05-17T08:24:28.132Z,14.60
2018-05-17T08:26:30.672Z,14.50
2018-05-17T08:28:33.247Z,14.80
2018-05-17T08:30:35.823Z,15.00
2018-05-17T08:32:39.180Z,15.50
2018-05-17T08:34:41.759Z,15.50
2018-05-17T08:36:45.125Z,15.90
2018-05-17T08:38:47.684Z,15.90
2018-05-17T08:40:50.228Z,15.90
2018-05-17T08:42:52.771Z,15.80
2018-05-17T08:44:56.123Z,15.30
2018-05-17T08:46:58.668Z,15.30
2018-05-17T08:49:01.314Z,15.10
2018-05-17T08:51:04.655Z,14.70
2018-05-17T08:53:07.189Z,14.70
2018-05-17T08:55:09.765Z,14.50
2018-05-17T08:57:12.320Z,14.20
2018-05-17T08:59:15.698Z,14.10
2018-05-17T09:01:18.261Z,14.10
2018-05-17T09:03:20.808Z,14.10
2018-05-17T09:05:23.383Z,14.10
2018-05-17T09:07:25.927Z,14.20
2018-05-17T09:09:29.280Z,14.80
2018-05-17T09:11:31.825Z,14.80
2018-05-17T09:13:34.473Z,14.90
2018-05-17T09:15:36.945Z,15.00
2018-05-17T09:17:39.496Z,14.90
2018-05-17T09:19:42.837Z,14.80
2018-05-17T09:21:45.393Z,14.80
2018-05-17T09:23:47.980Z,15.20
2018-05-17T09:25:51.319Z,15.20
2018-05-17T09:27:54.636Z,15.20
2018-05-17T09:29:57.212Z,15.20
2018-05-17T09:31:59.781Z,15.20
2018-05-17T09:34:02.351Z,15.30
2018-05-17T09:36:04.917Z,15.50
2018-05-17T09:38:08.236Z,15.30
2018-05-17T09:40:10.806Z,15.20
2018-05-17T09:42:13.396Z,15.30
2018-05-17T09:44:15.957Z,15.20
2018-05-17T09:46:18.512Z,15.10
2018-05-17T09:48:21.064Z,15.10
2018-05-17T09:50:24.426Z,14.80
2018-05-17T09:52:27.735Z,14.70
2018-05-17T09:54:30.298Z,14.60
2018-05-17T09:56:32.847Z,14.60
2018-05-17T09:58:35.411Z,14.70
2018-05-17T10:00:43.577Z,14.70
2018-05-17T10:02:46.897Z,14.70
2018-05-17T10:04:49.476Z,14.70
2018-05-17T10:06:52.030Z,14.60
2018-05-17T10:08:54.629Z,14.50
2018-05-17T10:10:57.928Z,14.70
2018-05-17T10:13:00.478Z,14.70
2018-05-17T10:15:03.036Z,14.60
2018-05-17T10:17:05.588Z,14.50
2018-05-17T10:19:08.904Z,14.70
2018-05-17T10:21:11.495Z,14.70
2018-05-17T10:23:14.127Z,14.70
2018-05-17T10:25:16.698Z,14.80
2018-05-17T10:27:19.236Z,14.60
2018-05-17T10:29:21.829Z,14.60
2018-05-17T10:31:25.137Z,14.30
2018-05-17T10:33:27.673Z,14.30
2018-05-17T10:35:30.237Z,14.50
2018-05-17T10:37:32.807Z,14.40
2018-05-17T10:39:35.431Z,14.60
2018-05-17T10:41:38.060Z,15.00
2018-05-17T10:43:40.704Z,15.00
2018-05-17T10:45:43.267Z,14.90
2018-05-17T10:47:46.587Z,14.60
2018-05-17T10:49:49.169Z,14.60
2018-05-17T10:51:51.717Z,14.60
2018-05-17T10:53:54.263Z,14.50
2018-05-17T10:55:57.598Z,14.90
2018-05-17T10:58:00.169Z,14.80
2018-05-17T11:00:03.506Z,15.10
2018-05-17T11:02:06.048Z,15.10
2018-05-17T11:04:08.593Z,14.90
2018-05-17T11:06:11.150Z,14.70
2018-05-17T11:08:14.508Z,14.50
2018-05-17T11:10:17.092Z,14.50
2018-05-17T11:12:19.673Z,14.40
2018-05-17T11:14:22.222Z,14.40
2018-05-17T11:16:24.791Z,14.50
2018-05-17T11:20:43.140Z,14.50
2018-05-17T11:22:46.481Z,14.50
2018-05-17T11:24:49.035Z,14.50
2018-05-17T11:26:51.646Z,14.50
2018-05-17T11:28:54.215Z,14.60
2018-05-17T11:30:56.802Z,14.60
2018-05-17T11:32:59.381Z,14.50
2018-05-17T11:35:01.933Z,14.70
2018-05-17T11:37:04.516Z,15.00
2018-05-17T11:39:07.133Z,15.10
2018-05-17T11:41:10.474Z,15.10
2018-05-17T11:43:13.034Z,15.10
2018-05-17T11:45:18.426Z,15.30
2018-05-17T11:47:21.793Z,15.40
2018-05-17T11:49:25.149Z,15.20
2018-05-17T11:51:27.782Z,15.20
2018-05-17T11:53:31.128Z,14.90
2018-05-17T11:55:33.882Z,14.80
2018-05-17T11:57:36.458Z,14.80
2018-05-17T11:59:39.059Z,14.90
2018-05-17T12:01:41.665Z,14.90
2018-05-17T12:03:44.255Z,15.00
2018-05-17T12:05:47.622Z,14.90
2018-05-17T12:07:50.207Z,14.90
2018-05-17T12:09:52.751Z,15.00
2018-05-17T12:11:55.381Z,15.00
2018-05-17T12:13:57.967Z,14.90
2018-05-17T12:16:00.588Z,14.70
2018-05-17T12:18:03.182Z,14.70
2018-05-17T12:20:05.758Z,14.70
2018-05-17T12:22:09.160Z,14.60
2018-05-17T12:24:12.502Z,14.70
2018-05-17T12:26:15.105Z,14.60
2018-05-17T12:28:17.684Z,14.70
2018-05-17T12:30:20.287Z,14.90
2018-05-17T12:32:23.640Z,15.20
2018-05-17T12:34:26.718Z,15.10
2018-05-17T12:36:29.322Z,15.20
2018-05-17T12:38:32.660Z,15.10
2018-05-17T12:40:35.264Z,15.10
2018-05-17T12:42:39.371Z,15.20
2018-05-17T12:44:41.952Z,15.20
2018-05-17T12:46:44.543Z,15.00
2018-05-17T12:48:47.891Z,15.00
2018-05-17T12:50:50.576Z,15.00
2018-05-17T12:52:53.912Z,15.10
2018-05-17T12:54:57.276Z,15.00
2018-05-17T12:56:59.881Z,15.00
2018-05-17T12:59:03.195Z,14.80
2018-05-17T13:01:05.779Z,14.80
2018-05-17T13:03:08.413Z,14.70
2018-05-17T13:05:29.773Z,14.50
2018-05-17T13:07:32.467Z,14.50
2018-05-17T13:09:35.858Z,14.40
2018-05-17T13:11:38.710Z,14.40
2018-05-17T13:13:41.287Z,14.40
2018-05-17T13:15:43.855Z,14.40
2018-05-17T13:17:46.465Z,14.50
2018-05-17T13:19:49.045Z,14.70
2018-05-17T13:21:51.676Z,14.80
2018-05-17T13:23:55.014Z,14.70
2018-05-17T13:25:57.616Z,14.70
2018-05-17T13:28:00.977Z,14.60
2018-05-17T13:30:03.535Z,14.60
2018-05-17T13:32:06.138Z,14.60
2018-05-17T13:34:08.711Z,14.60
2018-05-17T13:36:11.302Z,14.60
2018-05-17T13:38:13.901Z,14.50
2018-05-17T13:40:16.490Z,14.50
2018-05-17T13:42:19.094Z,14.60
2018-05-17T13:44:21.660Z,14.70
2018-05-17T13:46:25.040Z,14.70
2018-05-17T13:48:27.638Z,14.70
2018-05-17T13:50:30.252Z,14.60
2018-05-17T13:52:33.633Z,14.30
2018-05-17T13:54:36.191Z,14.30
2018-05-17T13:56:38.785Z,14.40
2018-05-17T13:58:41.389Z,14.50
2018-05-17T14:00:43.969Z,14.60
2018-05-17T14:02:47.044Z,14.40
2018-05-17T14:04:49.603Z,14.30
2018-05-17T14:06:52.940Z,14.50
2018-05-17T14:08:55.659Z,14.50
2018-05-17T14:10:58.235Z,14.60
2018-05-17T14:13:00.832Z,14.70
2018-05-17T14:15:04.321Z,14.90
2018-05-17T14:17:07.774Z,15.10
2018-05-17T14:19:10.356Z,15.10
2018-05-17T14:21:12.929Z,15.00
2018-05-17T14:23:15.546Z,15.00
2018-05-17T14:25:19.159Z,14.70
2018-05-17T14:27:21.753Z,14.70
2018-05-17T14:29:24.348Z,14.50
2018-05-17T14:31:27.675Z,14.40
2018-05-17T14:33:31.035Z,14.40
2018-05-17T14:35:33.630Z,14.40
2018-05-17T14:37:36.800Z,14.40
2018-05-17T14:39:39.508Z,14.40
2018-05-17T14:41:42.851Z,14.30
2018-05-17T14:43:45.452Z,14.30
2018-05-17T14:45:48.010Z,14.40
2018-05-17T14:47:50.590Z,14.50
2018-05-17T14:49:53.489Z,14.60
2018-05-17T14:51:56.043Z,14.40
2018-05-17T14:53:58.645Z,14.50
2018-05-17T14:56:01.986Z,14.50
2018-05-17T14:58:04.593Z,14.50
2018-05-17T15:00:07.167Z,14.60
2018-05-17T15:02:09.733Z,14.40
2018-05-17T15:04:12.868Z,14.40
2018-05-17T15:06:15.442Z,14.40
2018-05-17T15:08:18.855Z,14.30
2018-05-17T15:10:21.417Z,14.40
2018-05-17T15:12:25.141Z,14.20
2018-05-17T15:14:27.752Z,14.10
2018-05-17T15:16:30.343Z,14.00
2018-05-17T15:18:33.743Z,14.10
2018-05-17T15:20:37.085Z,14.10
2018-05-17T15:22:39.733Z,14.10
2018-05-17T15:24:42.926Z,14.30
2018-05-17T15:26:45.448Z,14.40
2018-05-17T15:28:48.002Z,14.40
2018-05-17T15:30:50.596Z,14.50
2018-05-17T15:32:53.157Z,14.70
2018-05-17T15:34:56.507Z,14.80
2018-05-17T15:36:59.073Z,14.80
2018-05-17T15:39:01.666Z,14.80
2018-05-17T15:41:04.251Z,14.80
2018-05-17T15:43:06.861Z,14.70
2018-05-17T15:45:09.456Z,14.70
2018-05-17T15:47:12.837Z,14.80
2018-05-17T15:49:16.181Z,14.80
2018-05-17T15:51:18.768Z,14.80
2018-05-17T15:53:21.433Z,14.80
2018-05-17T15:55:24.789Z,14.90
2018-05-17T15:57:28.120Z,15.00
2018-05-17T15:59:30.712Z,15.00
2018-05-17T16:01:33.277Z,14.90
2018-05-17T16:03:36.640Z,14.80
2018-05-17T16:05:39.233Z,14.80
2018-05-17T16:07:41.785Z,14.80
2018-05-17T16:09:44.424Z,14.80
2018-05-17T16:11:47.015Z,14.80
2018-05-17T16:13:50.390Z,14.70
2018-05-17T16:15:52.983Z,14.70
2018-05-17T16:17:56.336Z,14.60
2018-05-17T16:19:59.039Z,14.60
2018-05-17T16:22:02.393Z,14.70
2018-05-17T16:24:05.102Z,14.60
2018-05-17T16:26:07.696Z,14.70
2018-05-17T16:28:11.036Z,14.80
2018-05-17T16:30:13.625Z,14.70
2018-05-17T16:32:16.236Z,14.90
2018-05-17T16:34:19.620Z,15.00
2018-05-17T16:36:22.960Z,15.00
2018-05-17T16:38:25.533Z,14.90
2018-05-17T16:40:28.128Z,14.80
2018-05-17T16:42:32.214Z,14.70
2018-05-17T16:44:34.814Z,14.70
2018-05-17T16:46:37.430Z,14.70
2018-05-17T16:48:40.832Z,14.60
2018-05-17T16:50:43.519Z,14.60
2018-05-17T16:52:46.213Z,14.50
2018-05-17T16:54:48.773Z,14.50
2018-05-17T16:56:51.392Z,14.50
2018-05-17T16:58:54.075Z,14.50
2018-05-17T17:00:56.716Z,14.50
2018-05-17T17:02:59.315Z,14.50
2018-05-17T17:05:01.967Z,14.60
2018-05-17T17:07:05.271Z,14.50
2018-05-17T17:09:07.862Z,14.50
2018-05-17T17:11:10.521Z,14.40
2018-05-17T17:13:13.271Z,14.40
2018-05-17T17:15:15.904Z,14.50
2018-05-17T17:17:19.131Z,14.40
2018-05-17T17:19:21.905Z,14.40
2018-05-17T17:21:24.474Z,14.30
2018-05-17T17:23:27.053Z,14.30
2018-05-17T17:25:29.736Z,14.30
2018-05-17T17:27:32.549Z,14.30
2018-05-17T17:29:35.196Z,14.40
2018-05-17T17:31:37.770Z,14.40
2018-05-17T17:33:40.374Z,14.40
2018-05-17T17:35:42.992Z,14.50
2018-05-17T17:37:46.354Z,14.50
2018-05-17T17:39:48.959Z,14.50
2018-05-17T17:41:52.292Z,14.50
2018-05-17T17:43:54.872Z,14.50
2018-05-17T17:45:58.283Z,14.60
2018-05-17T17:48:00.887Z,14.50
2018-05-17T17:50:04.338Z,14.30
2018-05-17T17:52:07.344Z,14.30
2018-05-17T17:54:09.959Z,14.30
2018-05-17T17:56:12.617Z,14.30
2018-05-17T17:58:16.049Z,14.30
2018-05-17T18:00:18.709Z,14.20
2018-05-17T18:02:21.291Z,14.30
2018-05-17T18:04:23.879Z,14.30
2018-05-17T18:06:26.527Z,14.40
2018-05-17T18:08:29.886Z,14.40
2018-05-17T18:10:32.502Z,14.40
2018-05-17T18:12:35.143Z,14.40
2018-05-17T18:14:37.716Z,14.40
2018-05-17T18:16:40.304Z,14.50
2018-05-17T18:18:43.713Z,14.50
2018-05-17T18:20:46.319Z,14.50
2018-05-17T18:22:48.895Z,14.50
2018-05-17T18:24:51.555Z,14.50
2018-05-17T18:26:54.117Z,14.50
2018-05-17T18:28:56.717Z,14.60
2018-05-17T18:30:59.312Z,14.50
2018-05-17T18:33:02.667Z,14.50
2018-05-17T18:35:05.254Z,14.50
2018-05-17T18:37:07.851Z,14.40
2018-05-17T18:39:10.391Z,14.20
2018-05-17T18:41:13.072Z,14.30
2018-05-17T18:43:15.748Z,14.30
2018-05-17T18:45:19.051Z,14.40
2018-05-17T18:47:21.697Z,14.40
2018-05-17T18:49:24.300Z,14.40
2018-05-17T18:51:27.009Z,14.30
2018-05-17T18:53:30.460Z,14.10
2018-05-17T18:55:33.060Z,14.10
2018-05-17T18:57:35.656Z,14.10
2018-05-17T18:59:38.235Z,14.30
2018-05-17T19:01:40.903Z,14.10
2018-05-17T19:03:43.444Z,14.20
2018-05-17T19:05:46.058Z,14.20
2018-05-17T19:07:48.705Z,14.40
2018-05-17T19:09:51.334Z,14.40
2018-05-17T19:11:54.715Z,14.30
2018-05-17T19:13:58.103Z,14.00
2018-05-17T19:16:00.760Z,14.00
2018-05-17T19:18:03.395Z,13.80
2018-05-17T19:20:05.992Z,14.00
2018-05-17T19:22:08.642Z,14.00
2018-05-17T19:24:11.279Z,14.20
2018-05-17T19:26:14.709Z,14.20
2018-05-17T19:28:17.326Z,14.20
2018-05-17T19:30:19.945Z,14.30
2018-05-17T19:32:22.584Z,14.20
2018-05-17T19:34:25.240Z,14.10
2018-05-17T19:36:27.874Z,14.00
2018-05-17T19:38:30.457Z,14.00
2018-05-17T19:40:33.055Z,14.10
2018-05-17T19:42:35.712Z,14.10
2018-05-17T19:44:38.335Z,14.00
2018-05-17T19:46:41.903Z,13.90
2018-05-17T19:48:44.480Z,13.90
2018-05-17T19:50:47.068Z,13.90
2018-05-17T19:52:52.278Z,13.80
2018-05-17T19:54:55.605Z,14.00
2018-05-17T19:56:58.234Z,14.00
2018-05-17T19:59:00.805Z,14.10
2018-05-17T20:03:02.245Z,14.20
2018-05-17T20:05:04.845Z,14.30
2018-05-17T20:07:07.414Z,14.30
2018-05-17T20:09:09.977Z,14.40
2018-05-17T20:11:12.576Z,14.30
2018-05-17T20:13:15.198Z,14.20
2018-05-17T20:15:17.774Z,14.00
2018-05-17T20:17:21.192Z,14.10
2018-05-17T20:19:23.772Z,14.00
2018-05-17T20:21:26.356Z,13.90
2018-05-17T20:23:29.025Z,13.70
2018-05-17T20:25:31.584Z,13.70
2018-05-17T20:27:34.209Z,13.70
2018-05-17T20:29:37.622Z,13.80
2018-05-17T20:31:40.207Z,13.70
2018-05-17T20:33:42.807Z,13.90
2018-05-17T20:35:45.377Z,14.00
2018-05-17T20:37:47.986Z,13.90
2018-05-17T20:39:50.535Z,13.90
2018-05-17T20:41:53.070Z,14.00
2018-05-17T20:43:55.665Z,14.00
2018-05-17T20:45:58.251Z,13.90
2018-05-17T20:48:00.857Z,13.90
2018-05-17T20:50:03.535Z,13.70
2018-05-17T20:52:06.864Z,13.50
2018-05-17T20:54:09.540Z,13.50
2018-05-17T20:56:12.107Z,13.60
2018-05-17T20:58:14.704Z,13.60
2018-05-17T21:00:17.338Z,13.60
2018-05-17T21:02:20.669Z,13.80
2018-05-17T21:04:23.316Z,13.80
2018-05-17T21:06:25.866Z,13.80
2018-05-17T21:08:29.201Z,13.60
2018-05-17T21:10:31.767Z,13.60
2018-05-17T21:12:34.351Z,13.50
2018-05-17T21:14:36.936Z,13.40
2018-05-17T21:16:39.530Z,13.60
2018-05-17T21:18:42.120Z,13.60
2018-05-17T21:20:44.659Z,13.80
2018-05-17T21:22:47.229Z,13.90
2018-05-17T21:24:49.897Z,13.70
2018-05-17T21:26:52.468Z,13.80
2018-05-17T21:28:55.030Z,13.80
2018-05-17T21:30:57.639Z,13.80
2018-05-17T21:33:00.188Z,13.80
2018-05-17T21:35:02.763Z,13.70
2018-05-17T21:37:05.353Z,13.80
2018-05-17T21:39:07.924Z,13.90
2018-05-17T21:41:10.471Z,13.90
2018-05-17T21:43:13.019Z,13.90
2018-05-17T21:45:16.365Z,14.00
2018-05-17T21:47:18.921Z,13.90
2018-05-17T21:49:21.492Z,14.00
2018-05-17T21:51:24.083Z,14.00
2018-05-17T21:53:26.644Z,14.00
2018-05-17T21:55:29.290Z,14.00
2018-05-17T21:57:31.818Z,14.00
2018-05-17T21:59:34.383Z,13.90
2018-05-17T22:01:36.943Z,13.90
2018-05-17T22:03:39.582Z,13.90
2018-05-17T22:05:42.922Z,13.90
2018-05-17T22:07:45.472Z,13.90
2018-05-17T22:09:48.056Z,13.90
2018-05-17T22:11:50.615Z,13.90
2018-05-17T22:13:53.173Z,13.90
2018-05-17T22:15:55.745Z,13.70
2018-05-17T22:17:58.289Z,13.70
2018-05-17T22:20:00.854Z,13.70
2018-05-17T22:22:03.408Z,13.70
2018-05-17T22:24:05.970Z,13.60
2018-05-17T22:26:08.552Z,13.60
2018-05-17T22:28:11.113Z,13.60
2018-05-17T22:30:13.702Z,13.50
2018-05-17T22:32:16.268Z,13.50
2018-05-17T22:34:18.840Z,13.30
2018-05-17T22:36:21.429Z,13.30
2018-05-17T22:38:23.975Z,13.30
2018-05-17T22:40:26.676Z,13.40
2018-05-17T22:42:29.248Z,13.30
2018-05-17T22:44:31.823Z,13.40
2018-05-17T22:46:34.392Z,13.40
2018-05-17T22:48:36.950Z,13.40
2018-05-17T22:50:39.527Z,13.40
2018-05-17T22:52:42.084Z,13.40
2018-05-17T22:54:44.673Z,13.30
2018-05-17T22:56:59.277Z,13.30
2018-05-17T22:59:02.597Z,13.30
2018-05-17T23:01:05.156Z,13.30
2018-05-17T23:03:08.471Z,13.20
2018-05-17T23:05:11.091Z,13.20
2018-05-17T23:07:13.648Z,13.20
2018-05-17T23:09:16.251Z,13.20
2018-05-17T23:11:19.596Z,13.10
2018-05-17T23:13:22.151Z,13.10
2018-05-17T23:15:24.729Z,13.10
2018-05-17T23:17:27.272Z,13.10
2018-05-17T23:19:30.603Z,13.10
2018-05-17T23:21:33.173Z,13.10
2018-05-17T23:23:35.734Z,13.00
2018-05-17T23:25:38.288Z,12.90
2018-05-17T23:27:41.607Z,12.90
2018-05-17T23:29:44.152Z,12.90
2018-05-17T23:31:47.487Z,12.80
2018-05-17T23:33:50.030Z,12.80
2018-05-17T23:35:52.604Z,12.80
2018-05-17T23:37:55.168Z,12.80
2018-05-17T23:40:10.377Z,12.70
2018-05-17T23:42:12.956Z,12.70
2018-05-17T23:44:15.535Z,12.70
2018-05-17T23:46:18.868Z,12.60
2018-05-17T23:48:22.184Z,12.50
2018-05-17T23:50:24.751Z,12.50
2018-05-17T23:52:28.085Z,12.30
2018-05-17T23:54:30.637Z,12.20
2018-05-17T23:56:33.224Z,12.30
2018-05-17T23:58:35.772Z,12.20
